Time;durP1;ratioP1;P1;durP2;ratioP2;P2;SDS_P1;SDS_P2;PMS_P1;PMS_P2;Temp;Humidity;BMP_temperature;BMP_pressure;BME280_temperature;BME280_humidity;BME280_pressure;Samples;Min_cycle;Max_cycle;Signal;HPM_P1;HPM_P2
2023/11/05 00:00:32;;;;;;;1.85;0.93;;;;;11.40;94787.00;;;;5035216;28;20076;-64
2023/11/05 00:02:59;;;;;;;3.63;1.33;;;;;11.40;94790.00;;;;5033914;28;20049;-63
2023/11/05 00:05:26;;;;;;;4.43;1.17;;;;;11.40;94786.00;;;;5034688;28;20052;-65
2023/11/05 00:07:52;;;;;;;3.00;1.38;;;;;11.40;94793.00;;;;5035030;28;20045;-63
2023/11/05 00:10:19;;;;;;;3.13;1.50;;;;;11.40;94782.00;;;;5034042;28;20521;-63
2023/11/05 00:12:46;;;;;;;5.45;2.17;;;;;11.40;94787.00;;;;5037345;28;20046;-63
2023/11/05 00:15:12;;;;;;;4.13;1.13;;;;;11.40;94782.00;;;;5036233;28;20506;-64
2023/11/05 00:17:39;;;;;;;3.95;1.00;;;;;11.40;94774.00;;;;5035879;28;20494;-63
2023/11/05 00:20:07;;;;;;;4.22;1.33;;;;;11.40;94776.00;;;;5034102;28;20049;-63
2023/11/05 00:22:34;;;;;;;4.13;1.08;;;;;11.50;94772.00;;;;5035565;28;20045;-63
2023/11/05 00:25:01;;;;;;;2.60;0.95;;;;;11.50;94756.00;;;;5034924;28;20045;-64
2023/11/05 00:27:28;;;;;;;3.50;1.05;;;;;11.50;94744.00;;;;5034353;28;20037;-63
2023/11/05 00:29:57;;;;;;;2.72;1.30;;;;;11.40;94749.00;;;;5034725;28;20520;-64
2023/11/05 00:32:23;;;;;;;3.95;1.52;;;;;11.40;94753.00;;;;5034796;28;20461;-63
2023/11/05 00:34:50;;;;;;;3.45;1.30;;;;;11.50;94751.00;;;;5033860;28;20045;-63
2023/11/05 00:37:17;;;;;;;4.22;1.55;;;;;11.50;94751.00;;;;5033318;28;20139;-65
2023/11/05 00:39:44;;;;;;;3.70;1.23;;;;;11.40;94758.00;;;;5033030;28;20840;-63
2023/11/05 00:42:10;;;;;;;2.83;1.10;;;;;11.50;94762.00;;;;5034487;28;20041;-63
2023/11/05 00:44:37;;;;;;;8.93;1.20;;;;;11.50;94753.00;;;;5033908;28;20496;-65
2023/11/05 00:47:03;;;;;;;4.28;1.17;;;;;11.50;94749.00;;;;5033033;28;20448;-64
2023/11/05 00:49:30;;;;;;;4.15;1.80;;;;;11.50;94745.00;;;;5033091;28;20048;-63
2023/11/05 00:51:57;;;;;;;4.22;1.73;;;;;11.60;94752.00;;;;5033154;28;20045;-64
2023/11/05 00:54:25;;;;;;;3.53;1.40;;;;;11.60;94752.00;;;;5032244;28;20057;-66
2023/11/05 00:56:52;;;;;;;3.42;1.30;;;;;11.60;94734.00;;;;5034383;28;20124;-63
2023/11/05 00:59:19;;;;;;;4.97;1.13;;;;;11.60;94729.00;;;;5033050;28;20498;-62
2023/11/05 01:01:45;;;;;;;6.05;1.70;;;;;11.60;94718.00;;;;5034472;28;20042;-63
2023/11/05 01:04:12;;;;;;;4.85;1.58;;;;;11.60;94725.00;;;;5032311;28;20119;-64
2023/11/05 01:06:39;;;;;;;4.30;1.40;;;;;11.60;94724.00;;;;5032791;28;20123;-63
2023/11/05 01:09:05;;;;;;;5.30;1.77;;;;;11.60;94724.00;;;;5034171;28;20045;-64
2023/11/05 01:11:32;;;;;;;4.97;1.17;;;;;11.60;94718.00;;;;5032713;28;20103;-64
2023/11/05 01:14:00;;;;;;;8.05;1.65;;;;;11.60;94714.00;;;;5033332;28;20172;-64
2023/11/05 01:16:27;;;;;;;3.38;0.90;;;;;11.60;94708.00;;;;5033918;28;20073;-63
2023/11/05 01:18:54;;;;;;;3.25;1.40;;;;;11.60;94704.00;;;;5033741;28;20061;-63
2023/11/05 01:21:21;;;;;;;4.35;1.30;;;;;11.50;94696.00;;;;5033574;28;20072;-64
2023/11/05 01:23:47;;;;;;;3.35;1.38;;;;;11.60;94700.00;;;;5033043;28;20550;-63
2023/11/05 01:26:14;;;;;;;4.40;1.60;;;;;11.60;94689.00;;;;5032445;28;20056;-64
2023/11/05 01:28:41;;;;;;;8.13;1.65;;;;;11.60;94676.00;;;;5033664;28;20048;-64
2023/11/05 01:31:07;;;;;;;4.97;1.30;;;;;11.60;94677.00;;;;5033697;28;20041;-63
2023/11/05 01:33:34;;;;;;;2.97;1.30;;;;;11.60;94678.00;;;;5033024;28;20120;-64
2023/11/05 01:36:01;;;;;;;3.40;1.08;;;;;11.60;94670.00;;;;5033595;28;20070;-64
2023/11/05 01:38:31;;;;;;;4.00;1.20;;;;;11.60;94660.00;;;;5033808;28;20479;-64
2023/11/05 01:40:58;;;;;;;4.72;1.20;;;;;11.60;94664.00;;;;5033587;28;20143;-66
2023/11/05 01:43:25;;;;;;;5.13;1.20;;;;;11.60;94664.00;;;;5032036;28;20073;-65
2023/11/05 01:45:52;;;;;;;5.80;1.30;;;;;11.60;94661.00;;;;5033234;28;20043;-66
2023/11/05 01:48:19;;;;;;;2.17;1.00;;;;;11.70;94667.00;;;;5032930;28;20483;-66
2023/11/05 01:50:46;;;;;;;4.43;1.20;;;;;11.70;94664.00;;;;5015820;28;20514;-65
2023/11/05 01:53:13;;;;;;;4.90;1.20;;;;;11.70;94670.00;;;;5034165;28;20180;-65
2023/11/05 01:55:40;;;;;;;2.55;0.90;;;;;11.70;94665.00;;;;5016373;28;20474;-65
2023/11/05 01:58:07;;;;;;;4.15;1.10;;;;;11.70;94670.00;;;;5033069;28;20240;-66
2023/11/05 02:00:35;;;;;;;2.72;1.00;;;;;11.70;94663.00;;;;5032804;28;20046;-65
2023/11/05 02:03:02;;;;;;;5.65;1.38;;;;;11.70;94653.00;;;;5032245;28;20140;-65
2023/11/05 02:05:29;;;;;;;4.18;1.50;;;;;11.60;94649.00;;;;5014893;28;20517;-66
2023/11/05 02:07:55;;;;;;;4.57;1.45;;;;;11.60;94651.00;;;;5033063;28;20041;-64
2023/11/05 02:10:22;;;;;;;4.70;1.13;;;;;11.60;94658.00;;;;5033003;28;20052;-66
2023/11/05 02:12:59;;;;;;;7.43;1.75;;;;;11.60;94656.00;;;;5032792;28;20049;-66
2023/11/05 02:15:27;;;;;;;3.13;1.40;;;;;11.60;94643.00;;;;5030968;28;20144;-65
2023/11/05 02:17:54;;;;;;;3.20;1.10;;;;;11.60;94637.00;;;;5032765;28;20042;-63
2023/11/05 02:20:21;;;;;;;4.05;1.23;;;;;11.60;94632.00;;;;5031172;28;20495;-65
2023/11/05 02:22:51;;;;;;;3.92;1.10;;;;;11.60;94632.00;;;;5014896;28;20052;-65
2023/11/05 02:25:19;;;;;;;2.92;1.13;;;;;11.50;94623.00;;;;5031941;28;20041;-65
2023/11/05 02:27:50;;;;;;;3.08;1.17;;;;;11.50;94616.00;;;;5031116;28;20050;-65
2023/11/05 02:30:19;;;;;;;5.75;1.20;;;;;11.50;94624.00;;;;5031471;28;20541;-65
2023/11/05 02:32:46;;;;;;;2.20;1.05;;;;;11.50;94631.00;;;;5014862;28;20051;-65
2023/11/05 02:35:13;;;;;;;4.70;1.50;;;;;11.50;94633.00;;;;5031807;28;20051;-65
2023/11/05 02:37:40;;;;;;;4.43;1.10;;;;;11.40;94633.00;;;;5031249;28;20049;-65
2023/11/05 02:40:08;;;;;;;4.75;1.35;;;;;11.40;94636.00;;;;5032156;28;20549;-64
2023/11/05 02:42:34;;;;;;;4.07;1.10;;;;;11.40;94630.00;;;;5032196;28;20438;-63
2023/11/05 02:45:02;;;;;;;2.95;1.10;;;;;11.40;94639.00;;;;5031538;28;20401;-65
2023/11/05 02:47:29;;;;;;;7.30;1.63;;;;;11.40;94628.00;;;;5032075;28;20037;-64
2023/11/05 02:49:55;;;;;;;4.10;1.30;;;;;11.40;94632.00;;;;5031901;28;20052;-65
2023/11/05 02:52:22;;;;;;;3.58;1.25;;;;;11.30;94618.00;;;;5031921;28;20043;-65
2023/11/05 02:54:49;;;;;;;3.28;1.20;;;;;11.30;94617.00;;;;5031782;28;20414;-65
2023/11/05 02:57:20;;;;;;;4.68;1.42;;;;;11.40;94602.00;;;;5030659;28;20084;-65
2023/11/05 02:59:50;;;;;;;3.22;1.20;;;;;11.40;94606.00;;;;5031824;28;20045;-65
2023/11/05 03:02:17;;;;;;;5.38;1.40;;;;;11.40;94609.00;;;;5030684;28;20041;-64
2023/11/05 03:04:44;;;;;;;4.13;1.10;;;;;11.40;94607.00;;;;5031196;28;20049;-65
2023/11/05 03:07:16;;;;;;;2.17;1.00;;;;;11.40;94599.00;;;;5030596;28;20052;-63
2023/11/05 03:09:43;;;;;;;4.32;1.75;;;;;11.50;94590.00;;;;5030509;28;20095;-65
2023/11/05 03:12:11;;;;;;;4.55;1.00;;;;;11.40;94584.00;;;;5031925;28;20076;-63
2023/11/05 03:14:38;;;;;;;4.85;1.77;;;;;11.40;94586.00;;;;5030022;28;20131;-63
2023/11/05 03:17:06;;;;;;;3.20;1.17;;;;;11.40;94594.00;;;;5030675;28;20520;-63
2023/11/05 03:19:33;;;;;;;5.80;1.50;;;;;11.40;94594.00;;;;5030363;28;20057;-63
2023/11/05 03:21:59;;;;;;;3.63;1.25;;;;;11.30;94582.00;;;;5031783;28;20069;-63
2023/11/05 03:24:26;;;;;;;1.85;0.90;;;;;11.40;94585.00;;;;5031164;28;20042;-63
2023/11/05 03:26:54;;;;;;;7.78;1.80;;;;;11.30;94588.00;;;;5031666;28;20458;-63
2023/11/05 03:29:20;;;;;;;3.60;1.15;;;;;11.30;94589.00;;;;5030389;28;20129;-64
2023/11/05 03:31:49;;;;;;;3.88;1.25;;;;;11.30;94578.00;;;;5030425;28;20532;-63
2023/11/05 03:34:16;;;;;;;4.70;1.30;;;;;11.30;94573.00;;;;5029926;28;20058;-63
2023/11/05 03:36:43;;;;;;;2.25;0.80;;;;;11.30;94577.00;;;;5030399;28;20053;-63
2023/11/05 03:39:10;;;;;;;2.83;1.00;;;;;11.30;94581.00;;;;5030354;28;20045;-63
2023/11/05 03:41:36;;;;;;;7.28;1.23;;;;;11.30;94580.00;;;;5030558;28;20115;-64
2023/11/05 03:44:04;;;;;;;5.40;1.38;;;;;11.30;94587.00;;;;5031077;28;20482;-65
2023/11/05 03:46:30;;;;;;;7.45;1.40;;;;;11.30;94586.00;;;;5030390;28;20124;-64
2023/11/05 03:48:57;;;;;;;3.63;1.35;;;;;11.20;94598.00;;;;5030047;28;20042;-64
2023/11/05 03:51:26;;;;;;;5.35;1.35;;;;;11.10;94587.00;;;;5030255;28;20437;-65
2023/11/05 03:53:53;;;;;;;5.63;1.40;;;;;11.20;94595.00;;;;5029692;28;20453;-65
2023/11/05 03:56:20;;;;;;;4.60;1.17;;;;;11.20;94588.00;;;;5031941;28;20048;-65
2023/11/05 03:58:46;;;;;;;5.40;1.50;;;;;11.20;94593.00;;;;5030589;28;20041;-65
2023/11/05 04:01:17;;;;;;;6.88;1.63;;;;;11.20;94617.00;;;;5014063;28;20092;-64
2023/11/05 04:03:44;;;;;;;6.25;1.17;;;;;11.20;94594.00;;;;5030831;28;20041;-64
2023/11/05 04:06:10;;;;;;;7.32;1.50;;;;;11.20;94585.00;;;;5031579;28;20069;-64
2023/11/05 04:08:37;;;;;;;4.68;1.35;;;;;11.20;94591.00;;;;5030055;28;20077;-64
2023/11/05 04:11:04;;;;;;;5.95;1.25;;;;;11.20;94589.00;;;;5032103;28;20414;-64
2023/11/05 04:13:31;;;;;;;3.10;1.10;;;;;11.20;94591.00;;;;5033227;28;20111;-65
2023/11/05 04:15:59;;;;;;;5.43;1.30;;;;;11.20;94598.00;;;;5035022;28;20076;-65
2023/11/05 04:18:26;;;;;;;4.57;1.10;;;;;11.20;94579.00;;;;5033172;28;20081;-65
2023/11/05 04:20:52;;;;;;;5.57;1.63;;;;;11.20;94596.00;;;;5035347;28;20502;-64
2023/11/05 04:23:19;;;;;;;2.72;1.10;;;;;11.20;94596.00;;;;5034817;28;20052;-65
2023/11/05 04:25:46;;;;;;;4.88;1.45;;;;;11.30;94598.00;;;;5034186;28;20506;-64
2023/11/05 04:28:13;;;;;;;4.38;1.20;;;;;11.30;94595.00;;;;5034579;28;20049;-65
2023/11/05 04:30:40;;;;;;;6.30;1.30;;;;;11.30;94588.00;;;;5033426;28;20100;-65
2023/11/05 04:33:07;;;;;;;4.85;1.30;;;;;11.40;94582.00;;;;5033219;28;20057;-65
2023/11/05 04:35:33;;;;;;;4.25;1.10;;;;;11.30;94577.00;;;;5033979;28;20045;-65
2023/11/05 04:38:00;;;;;;;4.03;1.10;;;;;11.30;94584.00;;;;5033210;28;20045;-65
2023/11/05 04:40:27;;;;;;;4.68;1.60;;;;;11.30;94578.00;;;;5034519;28;20099;-65
2023/11/05 04:42:54;;;;;;;6.00;1.10;;;;;11.30;94581.00;;;;5034527;28;20046;-65
2023/11/05 04:45:20;;;;;;;6.15;1.27;;;;;11.30;94581.00;;;;5033821;28;20045;-64
2023/11/05 04:47:47;;;;;;;3.60;1.38;;;;;11.30;94591.00;;;;5034241;28;20495;-65
2023/11/05 04:50:14;;;;;;;3.53;0.90;;;;;11.30;94590.00;;;;5033165;28;20041;-65
2023/11/05 04:52:40;;;;;;;5.55;1.13;;;;;11.40;94595.00;;;;5016821;28;20045;-63
2023/11/05 04:55:07;;;;;;;7.28;1.67;;;;;11.30;94605.00;;;;5033571;28;20037;-65
2023/11/05 04:57:34;;;;;;;3.30;1.00;;;;;11.40;94591.00;;;;5034271;28;20044;-65
2023/11/05 05:00:01;;;;;;;5.00;0.95;;;;;11.40;94598.00;;;;5033961;28;20077;-64
2023/11/05 05:02:27;;;;;;;5.13;1.13;;;;;11.40;94596.00;;;;5034078;28;20052;-65
2023/11/05 05:04:54;;;;;;;2.83;1.00;;;;;11.40;94607.00;;;;5033378;28;20045;-65
2023/11/05 05:07:21;;;;;;;3.97;1.25;;;;;11.50;94596.00;;;;5035492;28;20052;-64
2023/11/05 05:09:48;;;;;;;5.32;1.00;;;;;11.50;94600.00;;;;5038533;28;20050;-64
2023/11/05 05:12:14;;;;;;;5.55;0.90;;;;;11.40;94597.00;;;;5040009;28;20045;-65
2023/11/05 05:14:41;;;;;;;3.97;1.17;;;;;11.40;94601.00;;;;5039480;28;20517;-63
2023/11/05 05:17:07;;;;;;;5.25;1.13;;;;;11.40;94599.00;;;;5036363;28;20444;-65
2023/11/05 05:19:34;;;;;;;4.07;1.02;;;;;11.40;94612.00;;;;5034439;28;20045;-65
2023/11/05 05:22:02;;;;;;;4.47;1.25;;;;;11.40;94594.00;;;;5034600;28;20049;-65
2023/11/05 05:24:29;;;;;;;4.32;1.25;;;;;11.50;94598.00;;;;5032761;28;20525;-65
2023/11/05 05:26:55;;;;;;;2.30;0.90;;;;;11.40;94592.00;;;;5034080;28;20125;-64
2023/11/05 05:29:22;;;;;;;3.40;0.80;;;;;11.40;94589.00;;;;5032685;28;20049;-65
2023/11/05 05:31:49;;;;;;;3.83;0.82;;;;;11.40;94590.00;;;;5032224;28;20096;-65
2023/11/05 05:34:16;;;;;;;1.77;0.70;;;;;11.40;94593.00;;;;5032797;28;20056;-65
2023/11/05 05:36:43;;;;;;;1.52;0.98;;;;;11.40;94589.00;;;;5033530;28;20107;-65
2023/11/05 05:39:10;;;;;;;1.90;0.80;;;;;11.40;94595.00;;;;5033332;28;20061;-63
2023/11/05 05:41:36;;;;;;;2.05;0.77;;;;;11.40;94589.00;;;;5033325;28;20057;-65
2023/11/05 05:44:03;;;;;;;2.28;0.80;;;;;11.40;94590.00;;;;5032623;28;20068;-65
2023/11/05 05:46:30;;;;;;;1.50;0.80;;;;;11.40;94597.00;;;;5033181;28;20133;-64
2023/11/05 05:48:57;;;;;;;1.88;0.68;;;;;11.40;94604.00;;;;5031815;28;20045;-65
2023/11/05 05:51:24;;;;;;;2.83;0.80;;;;;11.30;94612.00;;;;5033227;28;20069;-65
2023/11/05 05:53:50;;;;;;;3.10;0.73;;;;;11.30;94612.00;;;;5032477;28;20128;-64
2023/11/05 05:56:17;;;;;;;3.38;0.85;;;;;11.30;94623.00;;;;5031811;28;20041;-65
2023/11/05 05:58:44;;;;;;;2.72;0.85;;;;;11.30;94623.00;;;;5033004;28;20045;-65
2023/11/05 06:01:11;;;;;;;2.42;0.65;;;;;11.30;94628.00;;;;5032914;28;20406;-65
2023/11/05 06:03:38;;;;;;;4.68;1.30;;;;;11.30;94630.00;;;;5032350;28;20486;-65
2023/11/05 06:06:05;;;;;;;1.65;0.70;;;;;11.30;94626.00;;;;5032902;28;20049;-64
2023/11/05 06:08:31;;;;;;;1.67;0.90;;;;;11.20;94624.00;;;;5031724;28;20052;-65
2023/11/05 06:10:58;;;;;;;0.95;0.50;;;;;11.30;94626.00;;;;5032699;28;20448;-65
2023/11/05 06:13:25;;;;;;;4.05;1.00;;;;;11.30;94631.00;;;;5015207;28;20455;-61
2023/11/05 06:15:52;;;;;;;1.13;0.60;;;;;11.30;94631.00;;;;5032656;28;20046;-65
2023/11/05 06:18:19;;;;;;;1.30;0.68;;;;;11.20;94629.00;;;;5032427;28;20084;-65
2023/11/05 06:20:46;;;;;;;0.70;0.60;;;;;11.20;94649.00;;;;5033048;28;20442;-65
2023/11/05 06:23:12;;;;;;;1.55;0.50;;;;;11.20;94632.00;;;;5032497;28;20045;-65
2023/11/05 06:25:39;;;;;;;1.00;0.70;;;;;11.20;94639.00;;;;5030631;28;20140;-65
2023/11/05 06:28:06;;;;;;;1.52;0.70;;;;;11.10;94646.00;;;;5032295;28;20045;-65
2023/11/05 06:30:32;;;;;;;1.77;0.40;;;;;11.20;94642.00;;;;5032414;28;20087;-65
2023/11/05 06:32:59;;;;;;;1.30;0.50;;;;;11.10;94656.00;;;;5032091;28;20129;-65
2023/11/05 06:35:25;;;;;;;0.40;0.40;;;;;11.10;94658.00;;;;5030648;28;20052;-65
2023/11/05 06:37:52;;;;;;;0.30;0.30;;;;;11.10;94664.00;;;;5032209;28;20038;-65
2023/11/05 06:40:19;;;;;;;4.30;0.57;;;;;11.10;94663.00;;;;5032480;28;20045;-65
2023/11/05 06:42:45;;;;;;;0.57;0.40;;;;;11.10;94675.00;;;;5032279;28;20045;-65
2023/11/05 06:45:12;;;;;;;0.85;0.38;;;;;11.10;94664.00;;;;5031677;28;20132;-65
2023/11/05 06:47:39;;;;;;;0.88;0.40;;;;;11.10;94675.00;;;;5032175;28;20420;-65
2023/11/05 06:50:06;;;;;;;1.63;0.60;;;;;11.10;94677.00;;;;5031204;28;20092;-66
2023/11/05 06:52:33;;;;;;;1.65;0.57;;;;;11.10;94675.00;;;;5031976;28;20080;-66
2023/11/05 06:55:01;;;;;;;0.45;0.40;;;;;11.10;94694.00;;;;5031556;28;20049;-66
2023/11/05 06:57:28;;;;;;;0.40;0.40;;;;;11.10;94685.00;;;;5032072;28;20203;-65
2023/11/05 06:59:54;;;;;;;0.90;0.40;;;;;11.10;94678.00;;;;5031952;28;20048;-66
2023/11/05 07:02:21;;;;;;;0.38;0.32;;;;;11.10;94695.00;;;;5032023;28;20072;-66
2023/11/05 07:04:48;;;;;;;0.80;0.40;;;;;11.10;94707.00;;;;5031403;28;20056;-66
2023/11/05 07:07:14;;;;;;;0.57;0.40;;;;;11.10;94695.00;;;;5030775;28;20045;-66
2023/11/05 07:09:41;;;;;;;2.80;0.98;;;;;11.10;94700.00;;;;5031742;28;20088;-66
2023/11/05 07:12:08;;;;;;;0.50;0.50;;;;;11.10;94701.00;;;;5032374;28;20103;-66
2023/11/05 07:14:34;;;;;;;0.50;0.40;;;;;11.10;94702.00;;;;5031380;28;20077;-65
2023/11/05 07:17:04;;;;;;;0.20;0.20;;;;;11.20;94704.00;;;;5032097;28;20497;-66
2023/11/05 07:19:31;;;;;;;0.55;0.30;;;;;11.30;94717.00;;;;5031617;28;20092;-65
2023/11/05 07:21:58;;;;;;;0.52;0.45;;;;;11.40;94716.00;;;;5030653;28;20053;-66
2023/11/05 07:24:24;;;;;;;2.53;0.32;;;;;11.40;94715.00;;;;5031113;28;20487;-66
2023/11/05 07:26:51;;;;;;;1.05;0.45;;;;;11.50;94723.00;;;;5014385;28;20053;-66
2023/11/05 07:29:18;;;;;;;0.77;0.57;;;;;11.50;94732.00;;;;5031566;28;20045;-66
2023/11/05 07:31:44;;;;;;;0.40;0.30;;;;;11.50;94735.00;;;;5031807;28;20411;-66
2023/11/05 07:34:11;;;;;;;0.40;0.40;;;;;11.60;94741.00;;;;5031258;28;20515;-64
2023/11/05 07:36:38;;;;;;;1.45;0.60;;;;;11.60;94743.00;;;;5030626;28;20041;-66
2023/11/05 07:39:07;;;;;;;0.45;0.45;;;;;11.50;94745.00;;;;5031820;28;20069;-65
2023/11/05 07:41:34;;;;;;;0.50;0.50;;;;;11.50;94759.00;;;;5031677;28;20103;-66
2023/11/05 07:44:01;;;;;;;1.95;0.50;;;;;11.50;94757.00;;;;5031072;28;20483;-66
2023/11/05 07:46:28;;;;;;;1.52;0.50;;;;;11.50;94753.00;;;;5033097;28;20060;-66
2023/11/05 07:48:54;;;;;;;0.60;0.60;;;;;11.60;94767.00;;;;5034149;28;20056;-66
2023/11/05 07:51:24;;;;;;;1.48;0.50;;;;;11.50;94776.00;;;;5035638;28;20486;-66
2023/11/05 07:53:51;;;;;;;1.05;0.73;;;;;11.50;94781.00;;;;5034899;28;20041;-66
2023/11/05 07:56:17;;;;;;;1.20;0.70;;;;;11.60;94785.00;;;;5034175;28;20574;-66
2023/11/05 07:58:44;;;;;;;0.52;0.45;;;;;11.60;94786.00;;;;5035253;28;20069;-65
2023/11/05 08:01:12;;;;;;;0.93;0.80;;;;;11.60;94794.00;;;;5035118;28;20120;-66
2023/11/05 08:03:41;;;;;;;1.40;0.70;;;;;11.70;94788.00;;;;5034604;28;20045;-66
2023/11/05 08:06:08;;;;;;;2.15;0.50;;;;;11.70;94799.00;;;;5035127;28;20037;-65
2023/11/05 08:08:35;;;;;;;1.48;0.52;;;;;11.70;94794.00;;;;5034786;28;20042;-64
2023/11/05 08:11:01;;;;;;;1.58;0.75;;;;;11.70;94799.00;;;;5034960;28;20045;-64
2023/11/05 08:13:28;;;;;;;0.80;0.57;;;;;11.70;94806.00;;;;5033371;28;20053;-64
2023/11/05 08:15:54;;;;;;;0.88;0.60;;;;;11.80;94806.00;;;;5034473;28;20076;-64
2023/11/05 08:18:21;;;;;;;2.10;1.00;;;;;11.80;94815.00;;;;5034701;28;20087;-66
2023/11/05 08:20:48;;;;;;;0.50;0.50;;;;;11.80;94815.00;;;;5017271;28;20052;-66
2023/11/05 08:23:17;;;;;;;1.50;0.60;;;;;11.90;94815.00;;;;5017255;28;20055;-65
2023/11/05 08:25:44;;;;;;;2.15;0.68;;;;;11.90;94820.00;;;;5032924;28;20140;-64
2023/11/05 08:28:10;;;;;;;1.10;0.60;;;;;12.00;94822.00;;;;5033375;28;20095;-64
2023/11/05 08:30:51;;;;;;;0.98;0.80;;;;;12.10;94829.00;;;;5033561;28;20103;-65
2023/11/05 08:33:18;;;;;;;1.00;0.73;;;;;12.20;94833.00;;;;5033336;28;20058;-64
2023/11/05 08:35:45;;;;;;;2.58;0.73;;;;;12.10;94853.00;;;;5032690;28;20056;-64
2023/11/05 08:38:12;;;;;;;0.82;0.57;;;;;12.10;94845.00;;;;5034503;28;20041;-64
2023/11/05 08:40:40;;;;;;;0.73;0.70;;;;;12.00;94856.00;;;;5016909;28;20133;-64
2023/11/05 08:43:10;;;;;;;0.98;0.70;;;;;12.00;94854.00;;;;5033108;28;20084;-66
2023/11/05 08:45:37;;;;;;;1.83;0.90;;;;;11.80;94863.00;;;;5034079;28;20099;-61
2023/11/05 08:48:16;;;;;;;1.05;0.60;;;;;11.70;94859.00;;;;5034210;28;20076;-65
2023/11/05 08:50:42;;;;;;;0.77;0.60;;;;;11.70;94867.00;;;;5033043;28;20049;-64
2023/11/05 08:53:09;;;;;;;1.55;1.02;;;;;11.70;94866.00;;;;5034295;28;20491;-66
2023/11/05 08:55:37;;;;;;;1.17;0.77;;;;;11.90;94881.00;;;;5033536;28;20577;-65
2023/11/05 08:58:04;;;;;;;0.80;0.70;;;;;11.90;94892.00;;;;5034061;28;20045;-65
2023/11/05 09:00:34;;;;;;;1.65;0.60;;;;;11.90;94893.00;;;;5032979;28;20125;-65
2023/11/05 09:03:01;;;;;;;2.20;0.80;;;;;12.00;94898.00;;;;5034188;28;20524;-63
2023/11/05 09:05:28;;;;;;;1.73;0.80;;;;;12.20;94903.00;;;;5033428;28;20049;-65
2023/11/05 09:07:55;;;;;;;1.70;1.15;;;;;12.40;94912.00;;;;5033986;28;20041;-63
2023/11/05 09:10:26;;;;;;;1.10;1.00;;;;;12.70;94913.00;;;;5032733;28;20037;-64
2023/11/05 09:12:53;;;;;;;1.10;0.80;;;;;12.80;94930.00;;;;5034001;28;20041;-64
2023/11/05 09:15:20;;;;;;;1.58;1.00;;;;;12.80;94922.00;;;;5032168;28;20140;-63
2023/11/05 09:17:46;;;;;;;1.65;0.80;;;;;12.90;94934.00;;;;5032870;28;20495;-63
2023/11/05 09:20:13;;;;;;;2.25;0.98;;;;;12.90;94939.00;;;;5032494;28;20211;-63
2023/11/05 09:22:41;;;;;;;1.80;1.00;;;;;12.80;94938.00;;;;5032722;28;20561;-64
2023/11/05 09:25:08;;;;;;;4.85;1.77;;;;;12.60;94962.00;;;;5033366;28;20050;-63
2023/11/05 09:27:36;;;;;;;2.72;1.27;;;;;12.50;94962.00;;;;5033517;28;20506;-63
2023/11/05 09:30:11;;;;;;;1.60;0.80;;;;;12.50;94966.00;;;;5033423;28;20418;-63
2023/11/05 09:32:38;;;;;;;1.13;0.82;;;;;12.40;94968.00;;;;5033509;28;20049;-63
2023/11/05 09:35:07;;;;;;;2.28;1.60;;;;;12.40;94962.00;;;;5033017;28;20060;-63
2023/11/05 09:37:34;;;;;;;2.60;1.38;;;;;12.30;94981.00;;;;5032173;28;20053;-64
2023/11/05 09:40:01;;;;;;;4.28;2.25;;;;;12.30;94992.00;;;;5033349;28;20069;-64
2023/11/05 09:42:30;;;;;;;1.88;1.40;;;;;12.30;94994.00;;;;5033451;28;20179;-64
2023/11/05 09:44:59;;;;;;;1.67;1.20;;;;;12.30;94996.00;;;;5032790;28;20103;-64
2023/11/05 09:47:26;;;;;;;2.58;1.95;;;;;12.40;95014.00;;;;5031950;28;20049;-63
2023/11/05 09:49:53;;;;;;;2.00;1.42;;;;;12.50;95016.00;;;;5031898;28;20037;-64
2023/11/05 09:52:21;;;;;;;1.88;1.40;;;;;12.50;95032.00;;;;5032046;28;20049;-64
2023/11/05 09:54:48;;;;;;;4.05;2.13;;;;;12.30;95050.00;;;;5031179;28;20045;-64
2023/11/05 09:57:15;;;;;;;3.17;1.73;;;;;12.30;95039.00;;;;5031913;28;20069;-64
2023/11/05 09:59:48;;;;;;;1.85;1.10;;;;;12.40;95044.00;;;;5031756;28;20132;-66
2023/11/05 10:02:15;;;;;;;2.03;1.20;;;;;12.50;95055.00;;;;5031738;28;20100;-64
2023/11/05 10:04:41;;;;;;;1.73;1.30;;;;;12.50;95052.00;;;;5033038;28;20573;-65
2023/11/05 10:07:08;;;;;;;2.35;1.73;;;;;12.50;95054.00;;;;5034751;28;20099;-63
2023/11/05 10:09:39;;;;;;;3.03;1.70;;;;;12.60;95066.00;;;;5034447;28;20103;-64
2023/11/05 10:12:08;;;;;;;2.38;1.00;;;;;12.70;95069.00;;;;5033554;28;20041;-64
2023/11/05 10:14:35;;;;;;;2.88;1.30;;;;;12.80;95063.00;;;;5032480;28;20049;-62
2023/11/05 10:17:02;;;;;;;2.22;1.13;;;;;12.90;95077.00;;;;5018106;28;20140;-64
2023/11/05 10:19:36;;;;;;;1.55;1.20;;;;;12.90;95080.00;;;;5033690;28;20045;-64
2023/11/05 10:22:14;;;;;;;;;;;;;12.80;95091.00;;;;5035886;28;20128;-67
2023/11/05 10:24:41;;;;;;;0.80;0.80;;;;;12.80;95095.00;;;;5034596;28;19921;-67
2023/11/05 10:27:08;;;;;;;2.58;0.98;;;;;12.80;95099.00;;;;5032665;28;20151;-66
2023/11/05 10:29:36;;;;;;;1.80;1.27;;;;;12.80;95106.00;;;;5032821;28;20132;-65
2023/11/05 10:32:04;;;;;;;2.75;1.38;;;;;12.80;95111.00;;;;5033423;28;20073;-64
2023/11/05 10:34:31;;;;;;;2.90;1.80;;;;;12.80;95112.00;;;;5034937;28;20053;-67
2023/11/05 10:36:58;;;;;;;1.50;1.10;;;;;12.70;95133.00;;;;5034412;28;20049;-64
2023/11/05 10:39:24;;;;;;;2.10;1.20;;;;;12.70;95134.00;;;;5034806;28;20041;-67
2023/11/05 10:41:52;;;;;;;2.40;1.27;;;;;12.70;95130.00;;;;5034765;28;20394;-65
2023/11/05 10:44:21;;;;;;;2.30;1.65;;;;;12.70;95141.00;;;;5033244;28;20133;-65
2023/11/05 10:46:51;;;;;;;1.48;1.02;;;;;12.70;95151.00;;;;5034303;28;20041;-64
2023/11/05 10:49:18;;;;;;;1.15;0.73;;;;;12.70;95142.00;;;;5032811;28;20049;-64
2023/11/05 10:51:48;;;;;;;1.98;1.20;;;;;12.70;95147.00;;;;5035335;28;20045;-64
2023/11/05 10:54:16;;;;;;;1.40;0.85;;;;;12.80;95175.00;;;;5034814;28;20218;-64
2023/11/05 10:56:44;;;;;;;4.40;1.00;;;;;12.80;95169.00;;;;5032611;28;20402;-64
2023/11/05 10:59:11;;;;;;;1.60;1.10;;;;;12.90;95182.00;;;;5033228;28;20120;-65
2023/11/05 11:01:40;;;;;;;1.98;1.30;;;;;13.00;95174.00;;;;5031861;28;20503;-64
2023/11/05 11:04:13;;;;;;;2.70;1.40;;;;;12.90;95196.00;;;;5031378;28;20045;-64
2023/11/05 11:06:44;;;;;;;3.72;2.33;;;;;13.00;95191.00;;;;5033342;28;20124;-67
2023/11/05 11:09:15;;;;;;;1.98;1.13;;;;;13.00;95197.00;;;;5033330;28;20049;-64
2023/11/05 11:11:43;;;;;;;1.55;0.90;;;;;13.00;95203.00;;;;5033747;28;20046;-67
2023/11/05 11:14:09;;;;;;;0.95;0.90;;;;;12.90;95209.00;;;;5033263;28;20584;-67
2023/11/05 11:16:38;;;;;;;2.00;0.82;;;;;12.90;95222.00;;;;5032973;28;20046;-64
2023/11/05 11:19:08;;;;;;;1.00;0.65;;;;;12.90;95219.00;;;;5030561;28;20057;-64
2023/11/05 11:21:42;;;;;;;2.10;0.85;;;;;13.10;95203.00;;;;5017226;28;20144;-64
2023/11/05 11:24:35;;;;;;;1.48;0.90;;;;;13.30;95228.00;;;;5035439;28;20053;-64
2023/11/05 11:27:06;;;;;;;1.98;1.10;;;;;13.40;95231.00;;;;5035912;28;20128;-64
2023/11/05 11:29:37;;;;;;;1.50;1.30;;;;;13.50;95238.00;;;;5035694;28;20048;-64
2023/11/05 11:32:05;;;;;;;3.55;1.30;;;;;13.40;95233.00;;;;5036164;28;20487;-65
2023/11/05 11:34:32;;;;;;;2.85;1.70;;;;;13.50;95231.00;;;;5034259;28;20048;-64
2023/11/05 11:37:06;;;;;;;3.60;1.33;;;;;13.90;95275.00;;;;5034548;28;20041;-64
2023/11/05 11:39:33;;;;;;;1.88;0.98;;;;;14.10;95257.00;;;;5035517;28;20061;-64
2023/11/05 11:42:00;;;;;;;2.28;1.08;;;;;14.30;95257.00;;;;5035562;28;20091;-64
2023/11/05 11:44:27;;;;;;;1.63;0.85;;;;;14.20;95264.00;;;;5035090;28;20057;-65
2023/11/05 11:46:54;;;;;;;1.42;0.82;;;;;14.20;95257.00;;;;5035655;28;20053;-64
2023/11/05 11:49:27;;;;;;;2.72;1.00;;;;;14.20;95275.00;;;;5017847;28;20124;-65
2023/11/05 11:51:54;;;;;;;1.33;0.70;;;;;14.20;95289.00;;;;5034062;28;20053;-63
2023/11/05 11:54:24;;;;;;;1.95;1.20;;;;;14.20;95278.00;;;;5033566;28;20073;-65
2023/11/05 11:56:51;;;;;;;2.38;1.23;;;;;14.30;95281.00;;;;5035293;28;20470;-66
2023/11/05 11:59:21;;;;;;;4.30;2.13;;;;;14.50;95292.00;;;;5033949;28;20075;-64
2023/11/05 12:01:49;;;;;;;3.53;1.55;;;;;14.40;95312.00;;;;5035356;28;20124;-64
2023/11/05 12:04:16;;;;;;;3.42;1.70;;;;;14.20;95313.00;;;;5034766;28;20053;-64
2023/11/05 12:06:45;;;;;;;2.45;1.10;;;;;14.10;95309.00;;;;5035395;28;20045;-65
2023/11/05 12:09:22;;;;;;;3.35;1.23;;;;;14.10;95327.00;;;;5034812;28;20049;-65
2023/11/05 12:11:50;;;;;;;1.67;1.00;;;;;14.20;95325.00;;;;5035008;28;20052;-67
2023/11/05 12:14:21;;;;;;;1.95;1.27;;;;;14.20;95340.00;;;;5034598;28;20047;-64
2023/11/05 12:16:51;;;;;;;1.27;0.80;;;;;14.20;95333.00;;;;5035060;28;20073;-64
2023/11/05 12:19:17;;;;;;;2.20;0.88;;;;;14.20;95345.00;;;;5034633;28;20048;-66